createdAt,value
2022-08-25T00:00:55.046Z,20.80
2022-08-25T00:06:00.564Z,20.70
2022-08-25T00:11:09.342Z,20.70
2022-08-25T00:16:19.627Z,20.70
2022-08-25T00:21:26.676Z,20.70
2022-08-25T00:26:32.767Z,20.70
2022-08-25T00:31:39.948Z,20.60
2022-08-25T00:36:53.564Z,20.60
2022-08-25T00:42:01.898Z,20.60
2022-08-25T00:47:18.272Z,20.60
2022-08-25T00:52:30.358Z,20.50
2022-08-25T00:57:40.390Z,20.50
2022-08-25T01:02:49.647Z,20.50
2022-08-25T01:08:00.412Z,20.50
2022-08-25T01:13:18.534Z,20.50
2022-08-25T01:18:27.755Z,20.50
2022-08-25T01:23:35.665Z,20.50
2022-08-25T01:28:44.283Z,20.40
2022-08-25T01:33:51.856Z,20.40
2022-08-25T01:38:58.816Z,20.40
2022-08-25T01:44:08.766Z,20.30
2022-08-25T01:49:14.616Z,20.30
2022-08-25T01:54:21.739Z,20.20
2022-08-25T01:59:30.654Z,20.20
2022-08-25T02:04:37.417Z,20.20
2022-08-25T02:09:45.346Z,20.30
2022-08-25T02:14:50.700Z,20.30
2022-08-25T02:19:57.380Z,20.30
2022-08-25T02:25:03.065Z,20.20
2022-08-25T02:30:10.401Z,20.20
2022-08-25T02:35:17.465Z,20.20
2022-08-25T02:40:30.583Z,20.10
2022-08-25T02:45:37.562Z,20.00
2022-08-25T02:50:54.422Z,20.10
2022-08-25T02:56:00.115Z,20.00
2022-08-25T03:01:07.111Z,20.00
2022-08-25T03:06:16.199Z,20.00
2022-08-25T03:11:25.269Z,19.90
2022-08-25T03:16:34.593Z,19.90
2022-08-25T03:21:45.695Z,19.90
2022-08-25T03:26:58.154Z,19.90
2022-08-25T03:32:04.581Z,20.00
2022-08-25T03:37:11.022Z,20.00
2022-08-25T03:42:22.341Z,20.00
2022-08-25T03:47:34.321Z,20.00
2022-08-25T03:52:43.104Z,20.00
2022-08-25T03:57:49.072Z,20.00
2022-08-25T04:03:04.463Z,20.00
2022-08-25T04:08:12.402Z,20.00
2022-08-25T04:13:18.961Z,20.00
2022-08-25T04:18:24.391Z,20.00
2022-08-25T04:23:35.485Z,20.00
2022-08-25T04:28:41.263Z,20.00
2022-08-25T04:33:48.282Z,20.00
2022-08-25T04:38:54.087Z,20.00
2022-08-25T04:44:06.071Z,20.10
2022-08-25T04:49:12.638Z,20.10
2022-08-25T04:54:23.273Z,20.10
2022-08-25T04:59:30.197Z,20.20
2022-08-25T05:04:39.871Z,20.30
2022-08-25T05:09:45.376Z,20.40
2022-08-25T05:14:55.138Z,20.40
2022-08-25T05:20:00.648Z,20.50
2022-08-25T05:25:07.304Z,20.60
2022-08-25T05:30:12.957Z,20.70
2022-08-25T05:35:20.736Z,20.70
2022-08-25T05:40:34.496Z,20.80
2022-08-25T05:45:43.778Z,20.80
2022-08-25T05:50:59.369Z,20.90
2022-08-25T05:56:06.001Z,20.90
2022-08-25T06:01:15.350Z,21.00
2022-08-25T06:06:26.226Z,21.10
2022-08-25T06:11:31.883Z,21.10
2022-08-25T06:16:37.341Z,21.10
2022-08-25T06:21:42.719Z,21.10
2022-08-25T06:26:48.016Z,21.10
2022-08-25T06:31:53.969Z,21.20
2022-08-25T06:37:01.154Z,21.20
2022-08-25T06:42:07.221Z,21.40
2022-08-25T06:47:14.424Z,21.70
2022-08-25T06:52:20.636Z,22.00
2022-08-25T06:57:27.444Z,22.40
2022-08-25T07:02:39.224Z,22.60
2022-08-25T07:07:46.173Z,22.60
2022-08-25T07:12:52.214Z,22.60
2022-08-25T07:17:59.519Z,22.70
2022-08-25T07:23:05.699Z,22.80
2022-08-25T07:28:15.249Z,22.80
2022-08-25T07:33:21.857Z,22.80
2022-08-25T07:38:27.304Z,22.80
2022-08-25T07:43:34.779Z,22.80
2022-08-25T07:48:42.257Z,22.90
2022-08-25T07:53:49.689Z,23.00
2022-08-25T07:58:55.056Z,23.10
2022-08-25T08:04:03.533Z,23.20
2022-08-25T08:09:07.675Z,23.10
2022-08-25T08:14:16.299Z,23.20
2022-08-25T08:19:23.282Z,23.20
2022-08-25T08:24:44.915Z,23.30
2022-08-25T08:29:39.325Z,23.10
2022-08-25T08:34:44.784Z,23.20
2022-08-25T08:39:51.597Z,23.10
2022-08-25T08:45:02.992Z,23.10
2022-08-25T08:50:27.830Z,23.20
2022-08-25T08:55:51.862Z,23.40
2022-08-25T09:00:55.933Z,23.70
2022-08-25T09:06:04.132Z,23.90
2022-08-25T09:11:31.116Z,24.30
2022-08-25T09:16:56.817Z,24.80
2022-08-25T09:22:33.598Z,25.30
2022-08-25T09:27:43.324Z,26.20
2022-08-25T09:32:58.107Z,27.10
2022-08-25T09:38:09.468Z,27.80
2022-08-25T09:43:26.463Z,27.80
2022-08-25T09:48:39.566Z,27.70
2022-08-25T09:53:46.189Z,28.50
2022-08-25T09:58:53.438Z,29.10
2022-08-25T10:04:06.972Z,29.40
2022-08-25T10:09:25.706Z,29.30
2022-08-25T10:14:35.557Z,28.20
2022-08-25T10:19:41.609Z,27.50
2022-08-25T10:24:46.905Z,27.20
2022-08-25T10:29:58.226Z,27.00
2022-08-25T10:35:08.188Z,27.00
2022-08-25T10:40:32.770Z,27.20
2022-08-25T10:45:54.272Z,28.00
2022-08-25T10:51:21.504Z,29.00
2022-08-25T10:56:48.701Z,29.70
2022-08-25T11:02:07.202Z,30.00
2022-08-25T11:07:30.303Z,30.40
2022-08-25T11:12:38.463Z,30.80
2022-08-25T11:17:50.367Z,30.60
2022-08-25T11:23:02.169Z,30.80
2022-08-25T11:28:33.478Z,31.00
2022-08-25T11:33:40.656Z,31.30
2022-08-25T11:39:00.726Z,31.40
2022-08-25T11:44:09.721Z,31.30
2022-08-25T11:49:42.331Z,31.30
2022-08-25T11:54:48.706Z,31.30
2022-08-25T11:59:57.156Z,31.10
2022-08-25T12:05:15.217Z,31.10
2022-08-25T12:10:24.049Z,31.10
2022-08-25T12:15:50.438Z,31.30
2022-08-25T12:21:00.193Z,31.20
2022-08-25T12:26:23.471Z,30.80
2022-08-25T12:31:51.233Z,30.90
2022-08-25T12:36:59.532Z,30.90
2022-08-25T12:42:26.083Z,31.00
2022-08-25T12:47:33.105Z,30.70
2022-08-25T12:52:40.141Z,30.80
2022-08-25T12:58:01.374Z,30.60
2022-08-25T13:03:21.898Z,30.50
2022-08-25T13:08:33.632Z,30.70
2022-08-25T13:14:14.329Z,30.70
2022-08-25T13:19:22.361Z,30.80
2022-08-25T13:24:30.818Z,30.80
2022-08-25T13:29:42.277Z,30.70
2022-08-25T13:40:11.066Z,30.60
2022-08-25T13:45:22.235Z,30.70
2022-08-25T13:50:38.129Z,30.70
2022-08-25T13:55:58.508Z,30.40
2022-08-25T14:01:22.748Z,30.40
2022-08-25T14:06:45.063Z,30.30
2022-08-25T14:11:58.954Z,30.10
2022-08-25T14:17:22.170Z,30.10
2022-08-25T14:22:17.053Z,29.90
2022-08-25T14:27:22.993Z,29.70
2022-08-25T14:32:28.911Z,29.60
2022-08-25T14:37:34.693Z,29.50
2022-08-25T14:42:43.773Z,29.50
2022-08-25T14:47:50.188Z,29.30
2022-08-25T14:53:04.176Z,29.20
2022-08-25T14:58:04.320Z,29.30
2022-08-25T15:03:14.263Z,29.30
2022-08-25T15:08:37.414Z,29.20
2022-08-25T15:13:49.160Z,29.10
2022-08-25T15:18:52.920Z,29.10
2022-08-25T15:24:00.716Z,28.90
2022-08-25T15:29:06.378Z,28.90
2022-08-25T15:34:12.999Z,28.70
2022-08-25T15:39:19.209Z,28.70
2022-08-25T15:44:29.531Z,28.60
2022-08-25T15:49:33.625Z,28.60
2022-08-25T15:54:38.943Z,28.60
2022-08-25T15:59:45.880Z,28.50
2022-08-25T16:04:53.202Z,28.50
2022-08-25T16:09:59.574Z,28.40
2022-08-25T16:15:06.179Z,28.30
2022-08-25T16:20:19.967Z,28.10
2022-08-25T16:25:27.688Z,27.90
2022-08-25T16:30:39.740Z,27.80
2022-08-25T16:35:46.141Z,27.70
2022-08-25T16:40:51.631Z,27.60
2022-08-25T16:46:02.916Z,27.40
2022-08-25T16:51:14.000Z,27.30
2022-08-25T16:56:21.154Z,27.20
2022-08-25T17:01:34.372Z,27.10
2022-08-25T17:06:49.227Z,27.00
2022-08-25T17:11:51.904Z,26.90
2022-08-25T17:17:00.903Z,26.80
2022-08-25T17:22:08.665Z,26.70
2022-08-25T17:27:14.750Z,26.50
2022-08-25T17:33:16.350Z,26.40
2022-08-25T17:38:26.273Z,26.20
2022-08-25T17:43:43.805Z,26.00
2022-08-25T17:48:50.270Z,25.90
2022-08-25T17:53:55.982Z,25.90
2022-08-25T17:59:02.420Z,25.80
2022-08-25T18:04:07.773Z,25.60
2022-08-25T18:09:17.419Z,25.50
2022-08-25T18:14:25.565Z,25.40
2022-08-25T18:19:30.902Z,25.20
2022-08-25T18:24:36.387Z,25.10
2022-08-25T18:29:42.040Z,25.00
2022-08-25T18:34:47.406Z,24.90
2022-08-25T18:40:10.642Z,24.80
2022-08-25T18:45:16.245Z,24.80
2022-08-25T18:50:44.766Z,24.60
2022-08-25T18:55:53.777Z,24.50
2022-08-25T19:01:01.029Z,24.40
2022-08-25T19:06:08.636Z,24.30
2022-08-25T19:11:13.937Z,24.10
2022-08-25T19:16:24.344Z,24.10
2022-08-25T19:21:29.672Z,23.90
2022-08-25T19:26:37.343Z,23.80
2022-08-25T19:31:45.023Z,23.70
2022-08-25T19:36:51.669Z,23.60
2022-08-25T19:41:58.990Z,23.50
2022-08-25T19:47:09.243Z,23.40
2022-08-25T19:52:17.168Z,23.30
2022-08-25T19:57:28.530Z,23.20
2022-08-25T20:02:32.183Z,23.10
2022-08-25T20:07:46.073Z,23.00
2022-08-25T20:12:51.948Z,22.80
2022-08-25T20:17:59.198Z,22.80
2022-08-25T20:23:23.361Z,22.70
2022-08-25T20:28:30.550Z,22.60
2022-08-25T20:33:38.846Z,22.60
2022-08-25T20:38:45.162Z,22.50
2022-08-25T20:43:51.863Z,22.50
2022-08-25T20:48:59.383Z,22.40
2022-08-25T20:54:07.476Z,22.40
2022-08-25T20:59:13.154Z,22.30
2022-08-25T21:04:22.855Z,22.20
2022-08-25T21:09:31.940Z,22.10
2022-08-25T21:14:43.725Z,22.00
2022-08-25T21:19:57.998Z,22.00
2022-08-25T21:25:06.610Z,21.90
2022-08-25T21:30:16.837Z,21.90
2022-08-25T21:35:27.197Z,21.90
2022-08-25T21:40:44.868Z,21.80
2022-08-25T21:45:52.214Z,21.80
2022-08-25T21:51:20.592Z,21.70
2022-08-25T21:56:36.558Z,21.70
2022-08-25T22:01:42.732Z,21.70
2022-08-25T22:06:49.498Z,21.70
2022-08-25T22:11:58.714Z,21.60
2022-08-25T22:17:09.940Z,21.60
2022-08-25T22:22:16.607Z,21.50
2022-08-25T22:27:33.287Z,21.50
2022-08-25T22:32:40.623Z,21.50
2022-08-25T22:37:49.603Z,21.50
2022-08-25T22:43:03.576Z,21.60
2022-08-25T22:48:14.188Z,21.50
2022-08-25T22:53:19.484Z,21.50
2022-08-25T22:58:25.791Z,21.50
2022-08-25T23:03:37.746Z,21.50
2022-08-25T23:08:46.516Z,21.50
2022-08-25T23:13:54.313Z,21.50
2022-08-25T23:19:03.625Z,21.50
2022-08-25T23:24:12.782Z,21.50
2022-08-25T23:29:20.344Z,21.50
2022-08-25T23:34:29.357Z,21.50
2022-08-25T23:39:39.333Z,21.50
2022-08-25T23:44:45.791Z,21.50
2022-08-25T23:49:52.849Z,21.50
2022-08-25T23:55:02.876Z,21.40
